Time;durP1;ratioP1;P1;durP2;ratioP2;P2;SDS_P1;SDS_P2;PMS_P1;PMS_P2;Temp;Humidity;BMP_temperature;BMP_pressure;BME280_temperature;BME280_humidity;BME280_pressure;Samples;Min_cycle;Max_cycle;Signal;HPM_P1;HPM_P2
2023/09/29 00:01:49;;;;;;;8.93;5.68;;;;;;;16.32;100.00;101379.38;6249732;28;20050;-72
2023/09/29 00:04:51;;;;;;;9.45;5.63;;;;;;;16.28;100.00;101375.22;6252280;28;20053;-72
2023/09/29 00:07:52;;;;;;;10.73;5.47;;;;;;;16.24;100.00;101371.94;6254131;28;20087;-72
2023/09/29 00:10:55;;;;;;;8.23;5.10;;;;;;;16.23;100.00;101372.03;6250576;28;20049;-72
2023/09/29 00:13:56;;;;;;;11.43;6.03;;;;;;;16.20;100.00;101369.59;6241030;28;20045;-72
2023/09/29 00:16:58;;;;;;;8.15;4.90;;;;;;;16.21;100.00;101369.50;6245019;28;20045;-72
2023/09/29 00:19:59;;;;;;;11.38;5.50;;;;;;;16.21;100.00;101373.94;6253662;28;20046;-72
2023/09/29 00:23:02;;;;;;;6.47;4.93;;;;;;;16.22;100.00;101375.66;6254043;28;20053;-72
2023/09/29 00:26:05;;;;;;;13.90;6.40;;;;;;;16.19;100.00;101374.03;6253957;28;20053;-72
2023/09/29 00:29:06;;;;;;;9.73;6.10;;;;;;;16.20;100.00;101372.25;6247013;28;20154;-72
2023/09/29 00:32:07;;;;;;;12.77;6.25;;;;;;;16.20;100.00;101372.25;6245538;28;20050;-72
2023/09/29 00:35:17;;;;;;;11.52;6.78;;;;;;;16.20;100.00;101370.44;6253675;28;20138;-72
2023/09/29 00:38:19;;;;;;;8.80;5.88;;;;;;;16.19;100.00;101358.13;6253622;28;20138;-72
2023/09/29 00:41:22;;;;;;;14.63;6.05;;;;;;;16.19;100.00;101358.13;6253293;28;20053;-72
2023/09/29 00:44:24;;;;;;;12.40;6.35;;;;;;;16.17;100.00;101369.81;6253595;28;20591;-72
2023/09/29 00:47:25;;;;;;;8.38;5.72;;;;;;;16.18;100.00;101364.41;6253274;28;20342;-73
2023/09/29 00:50:27;;;;;;;8.52;5.68;;;;;;;16.20;100.00;101357.19;6253088;28;20049;-72
2023/09/29 00:53:29;;;;;;;9.95;5.13;;;;;;;16.21;100.00;101358.91;6249406;28;20045;-72
2023/09/29 00:56:33;;;;;;;10.23;5.63;;;;;;;16.22;100.00;101360.59;6245375;28;20077;-72
2023/09/29 00:59:35;;;;;;;11.13;5.55;;;;;;;16.24;100.00;101350.72;6252732;28;20183;-72
2023/09/29 01:02:37;;;;;;;10.10;6.85;;;;;;;16.26;100.00;101349.75;6253244;28;20049;-72
2023/09/29 01:05:41;;;;;;;13.52;8.18;;;;;;;16.26;100.00;101347.97;6252964;28;20056;-72
2023/09/29 01:08:44;;;;;;;10.20;6.78;;;;;;;16.28;100.00;101338.09;6252682;28;20063;-72
2023/09/29 01:11:49;;;;;;;12.35;7.28;;;;;;;16.29;100.00;101349.56;6252702;28;20057;-72
2023/09/29 01:14:50;;;;;;;14.35;8.32;;;;;;;16.32;100.00;101342.25;6252848;28;20056;-72
2023/09/29 01:17:53;;;;;;;10.85;7.80;;;;;;;16.37;100.00;101336.63;6252056;28;20046;-72
2023/09/29 01:20:54;;;;;;;13.38;8.00;;;;;;;16.37;100.00;101334.81;6252458;28;20045;-72
2023/09/29 01:23:57;;;;;;;11.60;7.95;;;;;;;16.37;100.00;101339.28;6252671;28;20056;-72
2023/09/29 01:26:59;;;;;;;7.28;5.38;;;;;;;16.38;100.00;101341.81;6243558;28;20354;-72
2023/09/29 01:30:00;;;;;;;12.02;7.95;;;;;;;16.38;100.00;101340.97;6247685;28;20450;-72
2023/09/29 01:33:02;;;;;;;11.40;7.45;;;;;;;16.40;100.00;101342.59;6252265;28;20060;-72
2023/09/29 01:36:04;;;;;;;15.80;8.05;;;;;;;16.43;100.00;101342.34;6252402;28;20053;-72
2023/09/29 01:39:07;;;;;;;13.50;8.48;;;;;;;16.45;100.00;101343.13;6251592;28;20331;-72
2023/09/29 01:42:08;;;;;;;11.68;7.60;;;;;;;16.48;100.00;101344.69;6252335;28;20049;-72
2023/09/29 01:45:11;;;;;;;9.93;6.43;;;;;;;16.51;100.00;101330.38;6251963;28;20049;-72
2023/09/29 01:48:13;;;;;;;19.73;8.23;;;;;;;16.53;100.00;101342.56;6252051;28;20046;-72
2023/09/29 01:51:14;;;;;;;11.90;6.75;;;;;;;16.56;100.00;101333.56;6251721;28;20056;-72
2023/09/29 01:54:17;;;;;;;14.13;9.57;;;;;;;16.59;100.00;101322.75;6251688;28;20053;-73
2023/09/29 01:57:18;;;;;;;12.25;8.80;;;;;;;16.59;100.00;101322.75;6251696;28;20397;-73
2023/09/29 02:00:23;;;;;;;13.38;8.35;;;;;;;16.58;100.00;101319.25;6251093;28;20335;-72
2023/09/29 02:03:25;;;;;;;10.85;6.63;;;;;;;16.60;100.00;101317.31;6251634;28;20057;-72
2023/09/29 02:06:27;;;;;;;10.68;7.25;;;;;;;16.62;100.00;101314.56;6251510;28;20049;-72
2023/09/29 02:09:30;;;;;;;14.80;9.88;;;;;;;16.62;100.00;101322.50;6251232;28;20045;-72
2023/09/29 02:12:32;;;;;;;11.38;7.78;;;;;;;16.62;100.00;101315.44;6244494;28;20049;-72
2023/09/29 02:15:34;;;;;;;13.23;9.18;;;;;;;16.65;100.00;101312.53;6233616;28;20128;-72
2023/09/29 02:18:35;;;;;;;14.07;8.55;;;;;;;16.67;100.00;101315.94;6243082;28;20046;-73
2023/09/29 02:21:36;;;;;;;14.27;9.05;;;;;;;16.70;100.00;101318.38;6250305;28;20052;-72
2023/09/29 02:24:39;;;;;;;10.95;7.53;;;;;;;16.72;100.00;101310.34;6243586;28;20053;-72
2023/09/29 02:27:41;;;;;;;14.98;8.80;;;;;;;16.72;100.00;101313.84;6251081;28;20049;-73
2023/09/29 02:30:42;;;;;;;14.55;8.50;;;;;;;16.71;100.00;101303.28;6250867;28;20069;-72
2023/09/29 02:33:44;;;;;;;9.77;6.88;;;;;;;16.71;100.00;101300.63;6250887;28;20055;-73
2023/09/29 02:36:45;;;;;;;14.63;9.13;;;;;;;16.68;100.00;101290.25;6241620;28;20069;-73
2023/09/29 02:39:48;;;;;;;15.13;8.63;;;;;;;16.66;100.00;101289.50;6250358;28;20041;-73
2023/09/29 02:42:49;;;;;;;19.30;8.40;;;;;;;16.66;100.00;101294.81;6250027;28;20061;-72
2023/09/29 02:45:51;;;;;;;12.95;7.97;;;;;;;16.66;100.00;101284.19;6250926;28;20052;-72
2023/09/29 02:48:52;;;;;;;13.75;8.25;;;;;;;16.65;100.00;101293.97;6250525;28;20050;-73
2023/09/29 02:51:53;;;;;;;11.60;6.80;;;;;;;16.65;100.00;101288.66;6250818;28;20054;-73
2023/09/29 02:54:56;;;;;;;11.73;7.47;;;;;;;16.64;100.00;101291.44;6250816;28;20045;-72
2023/09/29 02:57:58;;;;;;;18.80;9.20;;;;;;;16.63;100.00;101295.03;6250464;28;20046;-72
2023/09/29 03:00:59;;;;;;;14.50;9.25;;;;;;;16.62;100.00;101290.66;6250393;28;20042;-72
2023/09/29 03:04:01;;;;;;;13.50;7.97;;;;;;;16.62;100.00;101294.19;6250543;28;20580;-72
2023/09/29 03:07:02;;;;;;;11.77;8.63;;;;;;;16.61;100.00;101295.13;6239885;28;20050;-73
2023/09/29 03:10:06;;;;;;;11.32;7.53;;;;;;;16.63;100.00;101297.69;6250212;28;20049;-72
2023/09/29 03:13:07;;;;;;;13.20;7.47;;;;;;;16.63;100.00;101305.66;6250604;28;20060;-72
2023/09/29 03:16:09;;;;;;;12.88;7.45;;;;;;;16.64;100.00;101300.22;6250388;28;20049;-72
2023/09/29 03:19:10;;;;;;;15.07;7.60;;;;;;;16.64;100.00;101307.34;6250119;28;20041;-72
2023/09/29 03:22:13;;;;;;;9.63;6.70;;;;;;;16.63;100.00;101305.66;6250269;28;20370;-72
2023/09/29 03:25:18;;;;;;;11.95;7.95;;;;;;;16.62;100.00;101301.28;6250750;28;20571;-73
2023/09/29 03:28:19;;;;;;;9.27;6.55;;;;;;;16.63;100.00;101303.00;6250431;28;20088;-72
2023/09/29 03:31:22;;;;;;;13.77;7.78;;;;;;;16.62;100.00;101309.25;6249958;28;20357;-72
2023/09/29 03:34:24;;;;;;;16.58;8.40;;;;;;;16.63;100.00;101300.34;6250102;28;20049;-72
2023/09/29 03:37:27;;;;;;;14.95;7.63;;;;;;;16.65;100.00;101293.13;6250138;28;20053;-73
2023/09/29 03:40:31;;;;;;;13.48;8.50;;;;;;;16.62;100.00;101288.00;6253326;28;20153;-72
2023/09/29 03:43:33;;;;;;;10.43;7.75;;;;;;;16.60;100.00;101298.75;6254848;28;20346;-72
2023/09/29 03:46:34;;;;;;;12.95;7.93;;;;;;;16.58;100.00;101292.72;6255013;28;20050;-72
2023/09/29 03:49:35;;;;;;;11.40;7.38;;;;;;;16.60;100.00;101300.56;6254462;28;20045;-72
2023/09/29 03:52:37;;;;;;;9.85;5.97;;;;;;;16.58;100.00;101300.66;6254959;28;20083;-72
2023/09/29 03:55:40;;;;;;;10.05;7.07;;;;;;;16.57;100.00;101300.75;6241077;28;20350;-72
2023/09/29 03:58:41;;;;;;;12.38;6.63;;;;;;;16.56;100.00;101291.94;6254543;28;20076;-72
2023/09/29 04:01:44;;;;;;;9.57;6.53;;;;;;;16.56;100.00;101294.59;6254401;28;20056;-72
2023/09/29 04:04:45;;;;;;;17.42;8.20;;;;;;;16.55;100.00;101298.22;6254692;28;20341;-72
2023/09/29 04:07:47;;;;;;;13.32;7.03;;;;;;;16.54;100.00;101290.38;6254379;28;20049;-72
2023/09/29 04:10:50;;;;;;;8.13;5.35;;;;;;;16.55;100.00;101287.59;6254015;28;20053;-72
2023/09/29 04:13:51;;;;;;;11.98;7.53;;;;;;;16.55;100.00;101281.44;6242644;28;20049;-72
2023/09/29 04:16:53;;;;;;;11.10;6.75;;;;;;;16.54;100.00;101269.16;6239925;28;20050;-72
2023/09/29 04:19:55;;;;;;;11.90;5.97;;;;;;;16.53;100.00;101265.63;6253733;28;20096;-72
2023/09/29 04:22:56;;;;;;;10.88;6.45;;;;;;;16.54;100.00;101266.50;6247837;28;20140;-72
2023/09/29 04:25:59;;;;;;;13.75;6.20;;;;;;;16.55;100.00;101260.22;6248972;28;20072;-72
2023/09/29 04:29:00;;;;;;;10.60;5.90;;;;;;;16.54;100.00;101256.72;6253818;28;20057;-72
2023/09/29 04:32:02;;;;;;;8.32;5.53;;;;;;;16.53;100.00;101243.53;6253915;28;20069;-72
2023/09/29 04:35:05;;;;;;;7.30;4.72;;;;;;;16.54;100.00;101253.22;6253683;28;20353;-72
2023/09/29 04:38:07;;;;;;;10.02;5.93;;;;;;;16.52;100.00;101248.00;6272282;23;20053;-69
2023/09/29 04:41:10;;;;;;;10.95;6.30;;;;;;;16.53;100.00;101243.53;6236885;28;20045;-70
2023/09/29 04:44:11;;;;;;;7.10;5.13;;;;;;;16.51;100.00;101245.47;6253611;28;20065;-70
2023/09/29 04:47:12;;;;;;;8.38;6.07;;;;;;;16.51;100.00;101238.34;6248634;28;20485;-70
2023/09/29 04:50:14;;;;;;;8.60;5.72;;;;;;;16.51;100.00;101242.81;6227640;28;20046;-70
2023/09/29 04:53:15;;;;;;;9.45;5.03;;;;;;;16.51;100.00;101248.97;6228540;28;20080;-70
2023/09/29 04:56:18;;;;;;;9.60;4.93;;;;;;;16.52;100.00;101255.97;6221319;28;20046;-70
2023/09/29 04:59:20;;;;;;;8.52;5.10;;;;;;;16.51;100.00;101245.47;6225855;28;20050;-70
2023/09/29 05:02:21;;;;;;;8.48;4.95;;;;;;;16.52;100.00;101242.69;6228625;28;20058;-71
2023/09/29 05:05:22;;;;;;;7.15;4.70;;;;;;;16.51;100.00;101248.97;6228419;28;20050;-70
2023/09/29 05:08:24;;;;;;;6.78;4.68;;;;;;;16.52;100.00;101247.16;6228291;28;20054;-72
2023/09/29 05:11:28;;;;;;;8.20;4.18;;;;;;;16.52;100.00;101258.63;6227276;28;20042;-70
2023/09/29 05:14:29;;;;;;;5.70;3.72;;;;;;;16.54;100.00;101253.22;6219983;28;20045;-71
2023/09/29 05:17:31;;;;;;;6.10;3.88;;;;;;;16.55;100.00;101260.22;6228157;28;20054;-71
2023/09/29 05:20:33;;;;;;;5.55;4.03;;;;;;;16.53;100.00;101249.69;6227535;28;20057;-70
2023/09/29 05:23:35;;;;;;;10.32;5.57;;;;;;;16.52;100.00;101263.09;6228060;28;20054;-70
2023/09/29 05:26:38;;;;;;;8.18;4.43;;;;;;;16.52;100.00;101266.59;6228009;28;20058;-71
2023/09/29 05:29:39;;;;;;;9.05;4.55;;;;;;;16.51;100.00;101256.94;6227566;28;20104;-71
2023/09/29 05:32:41;;;;;;;7.78;4.63;;;;;;;16.48;100.00;101263.28;6227699;28;20443;-70
2023/09/29 05:35:42;;;;;;;9.90;4.88;;;;;;;16.48;100.00;101263.28;6227632;28;20354;-71
2023/09/29 05:38:44;;;;;;;5.35;3.90;;;;;;;16.52;100.00;101261.28;6227358;28;20045;-71
2023/09/29 05:41:46;;;;;;;6.20;3.83;;;;;;;16.53;100.00;101270.94;6227309;28;20065;-70
2023/09/29 05:44:48;;;;;;;9.02;4.63;;;;;;;16.55;100.00;101271.69;6227056;28;20076;-72
2023/09/29 05:47:51;;;;;;;7.35;5.03;;;;;;;16.55;100.00;101269.03;6204671;28;20363;-70
2023/09/29 05:50:53;;;;;;;6.32;3.83;;;;;;;16.56;100.00;101270.72;6210388;28;20116;-70
2023/09/29 05:53:54;;;;;;;4.70;3.60;;;;;;;16.57;100.00;101271.56;6197099;28;20051;-69
2023/09/29 05:56:57;;;;;;;7.20;4.30;;;;;;;16.57;100.00;101260.94;6208099;28;20579;-72
2023/09/29 05:59:58;;;;;;;6.60;3.95;;;;;;;16.59;100.00;101251.94;6199152;28;20039;-74
2023/09/29 06:03:00;;;;;;;5.90;4.22;;;;;;;16.59;100.00;101259.91;6202283;28;20054;-70
2023/09/29 06:06:01;;;;;;;6.88;3.80;;;;;;;16.60;100.00;101253.63;6210264;28;20105;-71
2023/09/29 06:09:04;;;;;;;5.22;3.90;;;;;;;16.64;100.00;101257.78;6202306;28;20069;-70
2023/09/29 06:12:07;;;;;;;7.18;3.95;;;;;;;16.66;100.00;101244.38;6202010;28;20054;-71
2023/09/29 06:15:09;;;;;;;7.18;4.38;;;;;;;16.66;100.00;101247.88;6201552;28;20049;-71
2023/09/29 06:18:11;;;;;;;5.85;4.00;;;;;;;16.67;100.00;101244.28;6214783;28;20439;-70
2023/09/29 06:21:12;;;;;;;5.93;3.58;;;;;;;16.70;100.00;101232.59;6217081;28;20050;-71
2023/09/29 06:24:13;;;;;;;5.05;3.72;;;;;;;16.71;100.00;101224.53;6204966;28;20046;-71
2023/09/29 06:27:16;;;;;;;4.93;3.50;;;;;;;16.73;100.00;101235.91;6195492;28;20046;-74
2023/09/29 06:30:18;;;;;;;4.65;3.22;;;;;;;16.76;100.00;101237.50;6191257;28;20050;-72
2023/09/29 06:33:19;;;;;;;4.00;3.13;;;;;;;16.77;100.00;101236.56;6204441;28;20058;-72
2023/09/29 06:36:21;;;;;;;5.07;3.30;;;;;;;16.82;100.00;101252.16;6222977;28;20449;-72
2023/09/29 06:39:22;;;;;;;6.55;3.42;;;;;;;16.83;100.00;101249.38;6225968;28;20080;-71
2023/09/29 06:42:25;;;;;;;7.72;3.22;;;;;;;16.85;100.00;101242.16;6226364;28;20057;-71
2023/09/29 06:45:29;;;;;;;10.10;4.35;;;;;;;16.89;100.00;101246.25;6224828;28;20054;-71
2023/09/29 06:48:31;;;;;;;4.82;3.08;;;;;;;16.93;100.00;101247.75;6226128;28;20378;-71
2023/09/29 06:51:33;;;;;;;4.57;2.97;;;;;;;16.97;100.00;101248.38;6225978;28;20123;-71
2023/09/29 06:54:34;;;;;;;4.38;3.20;;;;;;;16.98;100.00;101253.56;6226295;28;20049;-71
2023/09/29 06:57:37;;;;;;;5.47;2.90;;;;;;;17.01;100.00;101252.50;6226074;28;20446;-71
2023/09/29 07:00:38;;;;;;;6.80;3.83;;;;;;;17.02;100.00;101240.94;6225849;28;20049;-72
2023/09/29 07:03:40;;;;;;;3.53;2.90;;;;;;;17.05;100.00;101247.84;6226072;28;20054;-72
2023/09/29 07:06:42;;;;;;;4.57;2.70;;;;;;;17.09;100.00;101252.81;6225714;28;20389;-72
2023/09/29 07:09:43;;;;;;;5.28;3.08;;;;;;;17.12;100.00;101244.63;6225678;28;20050;-70
2023/09/29 07:12:46;;;;;;;4.57;2.55;;;;;;;17.14;100.00;101242.69;6225654;28;20065;-70
2023/09/29 07:15:48;;;;;;;4.32;3.08;;;;;;;17.18;100.00;101240.69;6230198;28;20061;-72
2023/09/29 07:18:50;;;;;;;6.22;3.80;;;;;;;17.23;100.00;101241.19;6230720;28;20057;-71
2023/09/29 07:21:51;;;;;;;5.90;2.65;;;;;;;17.28;100.00;101239.03;6230570;28;20050;-78
2023/09/29 07:24:57;;;;;;;3.78;2.50;;;;;;;17.33;100.00;101231.56;6230716;28;20053;-75
2023/09/29 07:28:00;;;;;;;3.30;2.60;;;;;;;17.39;100.00;101238.22;6207359;28;20370;-74
2023/09/29 07:31:02;;;;;;;8.35;2.83;;;;;;;17.43;100.00;101247.66;6202896;28;20042;-75
2023/09/29 07:34:03;;;;;;;8.63;3.28;;;;;;;17.45;100.00;101237.78;6195663;28;20065;-74
2023/09/29 07:37:05;;;;;;;6.55;2.78;;;;;;;17.48;100.00;101234.88;6194355;28;20043;-75
2023/09/29 07:40:08;;;;;;;4.45;2.60;;;;;;;17.51;100.00;101237.31;6209379;28;20373;-75
2023/09/29 07:43:11;;;;;;;3.80;2.30;;;;;;;17.54;100.00;101229.13;6182174;28;20054;-76
2023/09/29 07:46:12;;;;;;;7.10;2.90;;;;;;;17.57;100.00;101231.53;6181615;28;20492;-74
2023/09/29 07:49:14;;;;;;;4.15;2.75;;;;;;;17.60;100.00;101239.28;6197089;28;20050;-75
2023/09/29 07:52:16;;;;;;;3.47;2.30;;;;;;;17.60;100.00;101235.78;6218655;28;20046;-74
2023/09/29 07:55:18;;;;;;;3.67;2.28;;;;;;;17.62;100.00;101239.16;6198185;28;20051;-74
2023/09/29 07:58:21;;;;;;;3.95;2.58;;;;;;;17.65;100.00;101249.59;6194959;28;20050;-74
2023/09/29 08:01:23;;;;;;;2.80;2.22;;;;;;;17.68;100.00;101247.53;6207191;28;20050;-75
2023/09/29 08:04:24;;;;;;;3.33;2.30;;;;;;;17.70;100.00;101248.25;6196656;28;20443;-75
2023/09/29 08:07:26;;;;;;;4.38;2.50;;;;;;;17.74;100.00;101255.09;6193890;28;20051;-76
2023/09/29 08:10:27;;;;;;;3.92;2.55;;;;;;;17.78;100.00;101246.88;6194037;28;20069;-75
2023/09/29 08:13:31;;;;;;;2.80;1.98;;;;;;;17.86;100.00;101244.50;6189869;28;20047;-74
2023/09/29 08:16:32;;;;;;;3.58;2.38;;;;;;;17.89;100.00;101238.94;6193530;28;20479;-76
2023/09/29 08:19:35;;;;;;;2.83;2.35;;;;;;;17.92;100.00;101238.69;6189343;28;20049;-75
2023/09/29 08:22:36;;;;;;;8.00;1.95;;;;;;;17.94;100.00;101234.09;6204712;28;20366;-75
2023/09/29 08:25:39;;;;;;;3.88;2.47;;;;;;;17.99;100.00;101223.97;6227985;28;20057;-75
2023/09/29 08:28:42;;;;;;;3.75;2.08;;;;;;;18.02;100.00;101223.72;6197711;28;20182;-77
2023/09/29 08:31:43;;;;;;;3.72;2.03;;;;;;;18.06;100.00;101237.66;6212660;28;20054;-76
2023/09/29 08:34:45;;;;;;;2.72;1.98;;;;;;;18.10;100.00;101226.66;6199403;28;20056;-76
2023/09/29 08:37:46;;;;;;;3.63;2.30;;;;;;;18.21;100.00;101231.13;6204335;28;20073;-76
2023/09/29 08:40:50;;;;;;;5.00;1.95;;;;;;;18.31;100.00;101229.47;6208989;28;20051;-75
2023/09/29 08:43:53;;;;;;;2.53;1.70;;;;;;;18.41;100.00;101226.94;6211165;28;20136;-76
2023/09/29 08:47:00;;;;;;;3.00;1.92;;;;;;;18.52;100.00;101216.25;6210588;28;20049;-76
2023/09/29 08:50:04;;;;;;;3.55;2.08;;;;;;;18.64;100.00;101222.44;6223170;28;20065;-76
2023/09/29 08:53:06;;;;;;;6.22;2.22;;;;;;;18.75;100.00;101220.63;6226811;28;20058;-76
2023/09/29 08:56:11;;;;;;;3.88;2.35;;;;;;;18.79;100.00;101217.72;6207124;28;20361;-75
2023/09/29 08:59:15;;;;;;;5.78;1.92;;;;;;;18.82;100.00;101218.34;6200245;28;20069;-74
2023/09/29 09:02:16;;;;;;;3.53;1.75;;;;;;;18.85;100.00;101206.56;6199722;28;20116;-74
2023/09/29 09:05:20;;;;;;;2.95;1.70;;;;;;;18.93;100.00;101186.34;6190881;28;20053;-77
2023/09/29 09:08:23;;;;;;;3.05;1.70;;;;;;;19.02;100.00;101193.56;6190031;28;20050;-75
2023/09/29 09:11:25;;;;;;;4.38;2.28;;;;;;;19.08;100.00;101210.06;6190469;28;20042;-74
2023/09/29 09:14:39;;;;;;;3.85;2.08;;;;;;;19.13;100.00;101202.53;6194354;28;20047;-75
2023/09/29 09:17:40;;;;;;;2.55;1.77;;;;;;;19.22;100.00;101197.28;6201031;28;20054;-73
2023/09/29 09:20:42;;;;;;;3.92;1.80;;;;;;;19.33;100.00;101199.06;6217265;28;20053;-76
2023/09/29 09:23:43;;;;;;;5.22;1.63;;;;;;;19.45;100.00;101183.88;6218384;28;20069;-74
2023/09/29 09:26:46;;;;;;;2.88;2.00;;;;;;;19.48;100.00;101191.59;6228023;28;20054;-75
2023/09/29 09:29:48;;;;;;;3.88;1.92;;;;;;;19.64;100.00;101200.03;6226129;28;20046;-75
2023/09/29 09:32:50;;;;;;;4.13;1.73;;;;;;;19.71;100.00;101192.34;6210254;28;20050;-80
2023/09/29 09:35:52;;;;;;;3.22;1.75;;;;;;;19.73;100.00;101167.25;6205437;28;20050;-73
2023/09/29 09:38:54;;;;;;;2.55;1.58;;;;;;;19.75;100.00;101177.78;6210385;28;20367;-77
2023/09/29 09:41:57;;;;;;;2.70;1.70;;;;;;;19.82;100.00;101183.47;6211620;28;20056;-72
2023/09/29 09:45:00;;;;;;;3.55;1.73;;;;;;;19.93;100.00;101188.72;6205138;28;20057;-71
2023/09/29 09:48:06;;;;;;;6.20;1.80;;;;;;;20.08;100.00;101187.41;6209012;28;20054;-75
2023/09/29 09:51:08;;;;;;;1.88;1.40;;;;;;;20.18;100.00;101200.78;6217839;28;20053;-72
2023/09/29 09:54:11;;;;;;;5.47;1.80;;;;;;;20.21;100.00;101192.50;6225865;28;20050;-72
2023/09/29 09:57:17;;;;;;;2.25;1.55;;;;;;;20.19;100.00;101189.97;6224269;28;20061;-72
2023/09/29 10:00:24;;;;;;;4.72;1.67;;;;;;;20.28;100.00;101183.84;6225398;28;20081;-71
2023/09/29 10:03:28;;;;;;;3.88;1.50;;;;;;;20.33;100.00;101175.44;6226151;28;20061;-71
2023/09/29 10:06:30;;;;;;;3.35;1.52;;;;;;;20.33;100.00;101187.94;6227298;28;20401;-71
2023/09/29 10:09:41;;;;;;;1.83;1.35;;;;;;;20.31;100.00;101188.06;6226627;28;20053;-71
2023/09/29 10:12:54;;;;;;;2.47;1.52;;;;;;;20.46;100.00;101180.53;6227181;28;20050;-71
2023/09/29 10:15:59;;;;;;;2.17;1.50;;;;;;;20.47;100.00;101183.09;6226830;28;20077;-72
2023/09/29 10:19:05;;;;;;;4.32;1.60;;;;;;;20.50;100.00;101179.31;6226692;28;20054;-71
2023/09/29 10:22:08;;;;;;;3.92;1.60;;;;;;;20.59;100.00;101180.34;6226563;28;20050;-72
2023/09/29 10:25:11;;;;;;;4.25;2.05;;;;;;;20.66;100.00;101168.09;6226778;28;20465;-72
2023/09/29 10:28:17;;;;;;;4.15;1.40;;;;;;;20.78;100.00;101153.66;6226632;28;20075;-71
2023/09/29 10:31:28;;;;;;;5.38;1.50;;;;;;;21.00;100.00;101153.41;6226541;28;20137;-72
2023/09/29 10:34:32;;;;;;;2.05;1.38;;;;;;;21.22;100.00;101154.97;6193708;28;20061;-71
2023/09/29 10:37:41;;;;;;;3.33;1.55;;;;;;;21.38;100.00;101159.78;6202315;28;20069;-72
2023/09/29 10:40:44;;;;;;;1.90;1.70;;;;;;;21.50;100.00;101155.13;6201627;28;20141;-71
2023/09/29 10:43:48;;;;;;;2.80;1.42;;;;;;;21.57;100.00;101153.56;6202140;28;20069;-72
2023/09/29 10:46:51;;;;;;;2.08;1.40;;;;;;;21.65;100.00;101159.03;6201979;28;20057;-72
2023/09/29 10:49:55;;;;;;;1.80;1.13;;;;;;;21.70;100.00;101147.91;6201693;28;20056;-72
2023/09/29 10:52:56;;;;;;;4.15;1.67;;;;;;;21.77;100.00;101141.00;6201964;28;20057;-72
2023/09/29 10:55:59;;;;;;;3.63;1.40;;;;;;;21.65;100.00;101139.47;6201851;28;20054;-72
2023/09/29 10:59:06;;;;;;;3.15;1.55;;;;;;;21.61;100.00;101140.75;6201333;28;20150;-72
2023/09/29 11:02:11;;;;;;;2.75;1.20;;;;;;;21.45;100.00;101149.38;6201580;28;20049;-71
2023/09/29 11:05:13;;;;;;;1.85;1.20;;;;;;;21.51;100.00;101154.97;6201659;28;20461;-72
2023/09/29 11:08:14;;;;;;;2.05;1.40;;;;;;;21.53;100.00;101161.03;6201355;28;20148;-72
2023/09/29 11:11:16;;;;;;;2.50;1.38;;;;;;;21.53;100.00;101157.53;6201542;28;20050;-71
2023/09/29 11:14:18;;;;;;;3.13;1.55;;;;;;;21.54;100.00;101153.84;6201747;28;20054;-71
2023/09/29 11:17:21;;;;;;;1.75;1.30;;;;;;;21.59;100.00;101146.25;6202917;28;20056;-72
2023/09/29 11:20:26;;;;;;;1.42;1.10;;;;;;;21.63;100.00;101150.31;6201411;28;20058;-72
2023/09/29 11:23:38;;;;;;;4.63;1.50;;;;;;;21.61;100.00;101148.75;6201488;28;20144;-71
2023/09/29 11:26:41;;;;;;;3.38;1.42;;;;;;;21.63;100.00;101155.69;6201590;28;20050;-71
2023/09/29 11:29:44;;;;;;;3.85;1.58;;;;;;;21.65;100.00;101147.50;6201196;28;20053;-72
2023/09/29 11:32:47;;;;;;;3.28;1.30;;;;;;;21.77;100.00;101139.16;6201289;28;20085;-72
2023/09/29 11:35:51;;;;;;;4.68;1.75;;;;;;;21.91;100.00;101137.84;6201248;28;20046;-72
2023/09/29 11:38:52;;;;;;;4.20;2.55;;;;;;;22.14;100.00;101135.69;6200911;28;20134;-72
2023/09/29 11:41:54;;;;;;;5.95;1.73;;;;;;;22.47;100.00;101133.41;6200894;28;20051;-72
2023/09/29 11:44:55;;;;;;;3.08;1.52;;;;;;;22.77;100.00;101125.03;6201303;28;20074;-71
2023/09/29 11:47:58;;;;;;;7.90;1.67;;;;;;;22.90;100.00;101119.34;6201077;28;20399;-72
2023/09/29 11:50:59;;;;;;;5.28;1.30;;;;;;;22.94;100.00;101115.38;6201054;28;20057;-71
2023/09/29 11:54:01;;;;;;;3.20;1.67;;;;;;;23.12;100.00;101120.72;6201109;28;20056;-71
2023/09/29 11:57:03;;;;;;;2.60;1.50;;;;;;;23.26;100.00;101114.81;6201081;28;20052;-71
2023/09/29 12:00:08;;;;;;;5.50;1.88;;;;;;;23.38;100.00;101117.22;6201700;28;20054;-71
2023/09/29 12:03:12;;;;;;;2.08;1.40;;;;;;;23.54;100.00;101117.34;6205821;28;20058;-71
2023/09/29 12:06:14;;;;;;;1.98;1.52;;;;;;;23.58;100.00;101116.06;6205341;28;20050;-73
2023/09/29 12:09:17;;;;;;;9.02;1.80;;;;;;;23.74;100.00;101108.13;6205003;28;20378;-74
2023/09/29 12:12:19;;;;;;;3.58;1.58;;;;;;;23.64;100.00;101120.81;6205411;28;20047;-73
2023/09/29 12:15:20;;;;;;;3.35;1.80;;;;;;;23.36;100.00;101106.66;6205379;28;20061;-73
2023/09/29 12:18:24;;;;;;;3.05;1.60;;;;;;;23.14;100.00;101110.69;6205297;28;20047;-74
2023/09/29 12:21:25;;;;;;;2.00;1.30;;;;;;;23.03;100.00;101122.50;6198977;28;20050;-71
2023/09/29 12:24:27;;;;;;;3.30;1.70;;;;;;;22.91;100.00;101109.47;6192638;28;20046;-73
2023/09/29 12:27:28;;;;;;;2.65;1.45;;;;;;;22.92;100.00;101114.66;6195183;28;20046;-73
2023/09/29 12:30:30;;;;;;;3.72;1.90;;;;;;;22.86;100.00;101111.72;6204574;28;20054;-73
2023/09/29 12:33:33;;;;;;;3.72;2.08;;;;;;;22.85;100.00;101104.69;6204848;28;20050;-72
2023/09/29 12:36:34;;;;;;;1.88;1.20;;;;;;;22.98;100.00;101107.84;6204874;28;20054;-72
2023/09/29 12:39:39;;;;;;;1.70;1.20;;;;;;;23.03;100.00;101111.75;6204372;28;20054;-72
2023/09/29 12:42:46;;;;;;;3.72;1.40;;;;;;;23.01;100.00;101116.41;6204681;28;20046;-73
2023/09/29 12:45:48;;;;;;;4.00;1.50;;;;;;;23.14;100.00;101117.88;6204587;28;20054;-72
2023/09/29 12:48:51;;;;;;;4.93;1.40;;;;;;;23.13;100.00;101117.03;6204475;28;20057;-73
2023/09/29 12:51:52;;;;;;;1.75;1.13;;;;;;;23.14;100.00;101117.88;6204398;28;20043;-74
2023/09/29 12:54:56;;;;;;;1.88;1.48;;;;;;;23.20;100.00;101118.09;6204624;28;20465;-73
2023/09/29 12:58:04;;;;;;;2.13;1.33;;;;;;;23.17;100.00;101117.59;6204526;28;20050;-74
2023/09/29 13:01:06;;;;;;;3.80;1.70;;;;;;;23.20;100.00;101118.09;6198193;28;20201;-73
2023/09/29 13:04:08;;;;;;;5.88;1.70;;;;;;;23.04;100.00;101121.47;6193243;28;20050;-72
2023/09/29 13:07:10;;;;;;;2.28;1.58;;;;;;;22.98;100.00;101121.25;6190700;28;20424;-73
2023/09/29 13:10:11;;;;;;;3.08;1.50;;;;;;;22.87;100.00;101108.88;6206623;28;20050;-73
2023/09/29 13:13:13;;;;;;;3.67;1.80;;;;;;;22.73;100.00;101136.22;6203419;28;20042;-73
2023/09/29 13:16:14;;;;;;;4.40;1.70;;;;;;;22.76;100.00;101130.56;6209431;28;20061;-71
2023/09/29 13:19:17;;;;;;;2.45;1.58;;;;;;;22.77;100.00;101134.94;6191796;28;20050;-74
2023/09/29 13:22:18;;;;;;;3.70;1.42;;;;;;;22.77;100.00;101121.53;6205990;28;20046;-75
2023/09/29 13:25:20;;;;;;;4.90;1.30;;;;;;;22.66;100.00;101124.41;6199085;28;20046;-74
2023/09/29 13:28:21;;;;;;;3.13;1.83;;;;;;;22.67;100.00;101129.63;6193821;28;20050;-72
2023/09/29 13:31:23;;;;;;;5.35;1.80;;;;;;;22.65;100.00;101131.59;6193905;28;20042;-72
2023/09/29 13:34:26;;;;;;;3.17;1.67;;;;;;;22.65;100.00;101133.44;6342850;23;20379;-75
2023/09/29 13:37:28;;;;;;;2.63;1.35;;;;;;;22.64;100.00;101132.59;6254780;28;20045;-72
2023/09/29 13:40:29;;;;;;;4.00;1.55;;;;;;;22.87;100.00;101134.84;6251402;28;20350;-72
2023/09/29 13:43:31;;;;;;;4.15;1.75;;;;;;;23.15;100.00;101131.13;6253122;28;20049;-74
2023/09/29 13:46:32;;;;;;;2.65;1.60;;;;;;;23.59;100.00;101133.00;6240835;28;20046;-74
2023/09/29 13:49:35;;;;;;;3.40;1.80;;;;;;;23.90;100.00;101123.50;6269881;23;20421;-73
2023/09/29 13:52:36;;;;;;;4.05;2.15;;;;;;;24.10;100.00;101125.94;6233061;28;20355;-72
2023/09/29 13:55:39;;;;;;;5.57;2.03;;;;;;;24.15;100.00;101121.75;6229214;28;20042;-73